createdAt,value
2023-01-26T00:02:01.467Z,101525.97
2023-01-26T00:07:03.547Z,101536.41
2023-01-26T00:12:05.777Z,101525.97
2023-01-26T00:17:07.997Z,101527.84
2023-01-26T00:22:10.051Z,101528.75
2023-01-26T00:27:12.047Z,101526.03
2023-01-26T00:32:14.109Z,101520.75
2023-01-26T00:37:16.150Z,101525.22
2023-01-26T00:42:18.103Z,101515.66
2023-01-26T00:47:20.199Z,101509.56
2023-01-26T00:52:22.224Z,101484.97
2023-01-26T00:57:24.214Z,101486.94
2023-01-26T01:02:26.386Z,101483.41
2023-01-26T01:07:28.421Z,101484.22
2023-01-26T01:12:30.570Z,101482.59
2023-01-26T01:17:32.686Z,101477.44
2023-01-26T01:22:36.091Z,101471.41
2023-01-26T01:27:38.113Z,101467.00
2023-01-26T01:32:40.211Z,101448.63
2023-01-26T01:37:42.241Z,101457.44
2023-01-26T01:42:48.681Z,101459.06
2023-01-26T01:47:51.036Z,101443.47
2023-01-26T01:52:55.892Z,101437.44
2023-01-26T01:58:02.023Z,101431.44
2023-01-26T02:03:15.046Z,101429.59
2023-01-26T02:08:19.896Z,101422.50
2023-01-26T02:13:24.487Z,101414.66
2023-01-26T02:18:26.634Z,101407.84
2023-01-26T02:24:04.442Z,101405.25
2023-01-26T02:29:09.768Z,101393.97
2023-01-26T02:34:11.960Z,101385.97
2023-01-26T02:39:38.858Z,101379.84
2023-01-26T02:44:43.362Z,101382.78
2023-01-26T02:49:48.229Z,101372.31
2023-01-26T02:55:08.567Z,101360.97
2023-01-26T03:00:17.143Z,101340.81
2023-01-26T03:05:20.040Z,101337.22
2023-01-26T03:10:24.470Z,101342.66
2023-01-26T03:15:52.936Z,101335.72
2023-01-26T03:21:13.415Z,101333.09
2023-01-26T03:26:34.131Z,101320.03
2023-01-26T03:31:36.224Z,101312.66
2023-01-26T03:36:40.955Z,101323.56
2023-01-26T03:42:01.359Z,101329.69
2023-01-26T03:47:22.000Z,101321.91
2023-01-26T03:52:42.662Z,101321.00
2023-01-26T03:57:44.680Z,101315.78
2023-01-26T04:03:05.038Z,101309.59
2023-01-26T04:08:28.780Z,101301.75
2023-01-26T04:13:49.204Z,101304.44
2023-01-26T04:19:10.032Z,101296.66
2023-01-26T04:24:16.931Z,101294.88
2023-01-26T04:29:19.289Z,101307.13
2023-01-26T04:34:22.171Z,101292.25
2023-01-26T04:39:24.151Z,101284.19
2023-01-26T04:44:26.135Z,101291.38
2023-01-26T04:49:28.145Z,101304.50
2023-01-26T04:54:30.143Z,101287.03
2023-01-26T04:59:32.179Z,101280.03
2023-01-26T05:04:34.280Z,101258.81
2023-01-26T05:09:36.390Z,101272.25
2023-01-26T05:14:38.404Z,101272.25
2023-01-26T05:19:40.485Z,101276.59
2023-01-26T05:24:42.578Z,101267.69
2023-01-26T05:29:44.616Z,101272.31
2023-01-26T05:34:46.662Z,101274.03
2023-01-26T05:39:48.661Z,101275.75
2023-01-26T05:44:50.733Z,101271.34
2023-01-26T05:49:52.804Z,101268.66
2023-01-26T05:54:54.842Z,101270.53
2023-01-26T05:59:56.919Z,101261.03
2023-01-26T06:04:58.970Z,101249.56
2023-01-26T06:10:01.064Z,101254.03
2023-01-26T06:15:03.925Z,101244.25
2023-01-26T06:20:07.185Z,101259.25
2023-01-26T06:25:09.558Z,101259.25
2023-01-26T06:30:12.211Z,101253.13
2023-01-26T06:35:14.452Z,101233.03
2023-01-26T06:40:17.159Z,101260.22
2023-01-26T06:45:20.885Z,101244.31
2023-01-26T06:50:26.874Z,101259.41
2023-01-26T06:55:42.010Z,101253.13
2023-01-26T07:00:43.980Z,101250.66
2023-01-26T07:05:46.042Z,101247.06
2023-01-26T07:10:49.427Z,101250.66
2023-01-26T07:15:51.409Z,101249.75
2023-01-26T07:20:53.490Z,101258.50
2023-01-26T07:25:55.529Z,101254.09
2023-01-26T07:31:02.203Z,101248.94
2023-01-26T07:36:04.551Z,101231.41
2023-01-26T07:41:10.600Z,101243.78
2023-01-26T07:46:12.895Z,101242.75
2023-01-26T07:51:14.972Z,101259.41
2023-01-26T07:56:20.799Z,101256.03
2023-01-26T08:01:23.448Z,101255.22
2023-01-26T08:06:25.755Z,101262.16
2023-01-26T08:11:28.013Z,101253.50
2023-01-26T08:16:30.043Z,101247.38
2023-01-26T08:21:32.279Z,101252.59
2023-01-26T08:26:34.374Z,101255.28
2023-01-26T08:31:36.477Z,101244.81
2023-01-26T08:36:40.006Z,101250.13
2023-01-26T08:41:42.089Z,101244.13
2023-01-26T08:46:44.584Z,101239.81
2023-01-26T08:51:46.631Z,101249.44
2023-01-26T08:56:48.731Z,101258.31
2023-01-26T09:01:51.511Z,101260.94
2023-01-26T09:06:53.703Z,101245.09
2023-01-26T09:11:56.689Z,101253.03
2023-01-26T09:16:58.830Z,101258.47
2023-01-26T09:22:00.927Z,101256.66
2023-01-26T09:27:03.031Z,101250.75
2023-01-26T09:32:05.382Z,101211.94
2023-01-26T09:37:08.539Z,101230.88
2023-01-26T09:42:29.338Z,101228.41
2023-01-26T09:47:43.467Z,101219.66
2023-01-26T09:52:55.097Z,101213.75
2023-01-26T09:58:05.453Z,101201.59
2023-01-26T10:03:11.327Z,101199.13
2023-01-26T10:08:17.195Z,101200.91
2023-01-26T10:13:21.945Z,101195.75
2023-01-26T10:18:32.624Z,101188.91
2023-01-26T10:23:36.478Z,101190.72
2023-01-26T10:28:42.680Z,101188.28
2023-01-26T10:34:01.629Z,101183.19
2023-01-26T10:39:06.574Z,101171.84
2023-01-26T10:44:12.078Z,101177.34
2023-01-26T10:49:17.516Z,101161.63
2023-01-26T10:54:25.639Z,101166.19
2023-01-26T10:59:35.336Z,101161.91
2023-01-26T11:04:37.955Z,101152.28
2023-01-26T11:09:40.202Z,101149.72
2023-01-26T11:14:42.225Z,101154.25
2023-01-26T11:20:03.399Z,101152.66
2023-01-26T11:25:15.843Z,101146.66
2023-01-26T11:30:36.257Z,101148.44
2023-01-26T11:36:04.172Z,101127.44
2023-01-26T11:41:31.370Z,101124.97
2023-01-26T11:47:00.867Z,101119.03
2023-01-26T11:52:40.462Z,101112.13
2023-01-26T11:57:52.918Z,101111.22
2023-01-26T12:03:04.413Z,101105.16
2023-01-26T12:08:46.252Z,101087.75
2023-01-26T12:14:05.675Z,101100.25
2023-01-26T12:19:38.360Z,101104.59
2023-01-26T12:25:20.362Z,101090.59
2023-01-26T12:30:31.854Z,101094.31
2023-01-26T12:35:49.361Z,101090.84
2023-01-26T12:41:33.716Z,101082.94
2023-01-26T12:46:41.614Z,101091.03
2023-01-26T12:51:53.784Z,101082.28
2023-01-26T12:56:58.339Z,101078.72
2023-01-26T13:02:10.500Z,101080.69
2023-01-26T13:07:31.041Z,101083.38
2023-01-26T13:12:57.094Z,101076.41
2023-01-26T13:18:01.187Z,101072.97
2023-01-26T13:23:03.244Z,101074.75
2023-01-26T13:28:14.132Z,101077.44
2023-01-26T13:33:24.285Z,101068.63
2023-01-26T13:38:43.611Z,101071.31
2023-01-26T13:44:06.891Z,101068.75
2023-01-26T13:49:28.381Z,101063.56
2023-01-26T13:54:30.691Z,101061.84
2023-01-26T13:59:33.578Z,101043.28
2023-01-26T14:04:35.805Z,101053.03
2023-01-26T14:09:49.547Z,101047.84
2023-01-26T14:14:54.830Z,101048.25
2023-01-26T14:19:58.707Z,101045.81
2023-01-26T14:25:00.727Z,101040.13
2023-01-26T14:30:21.140Z,101037.59
2023-01-26T14:35:23.746Z,101031.81
2023-01-26T14:40:26.147Z,101029.97
2023-01-26T14:45:32.802Z,101025.63
2023-01-26T14:50:37.097Z,101021.66
2023-01-26T14:55:39.459Z,101023.53
2023-01-26T15:00:41.985Z,101025.00
2023-01-26T15:05:45.152Z,101015.47
2023-01-26T15:10:56.034Z,101011.09
2023-01-26T15:16:08.551Z,101018.03
2023-01-26T15:21:22.132Z,101005.66
2023-01-26T15:26:32.804Z,101008.88
2023-01-26T15:31:42.644Z,101008.19
2023-01-26T15:42:31.783Z,101010.94
2023-01-26T15:47:34.195Z,101022.53
2023-01-26T15:52:37.135Z,101027.34
2023-01-26T15:57:40.306Z,101025.38
2023-01-26T16:02:43.595Z,101013.97
2023-01-26T16:07:46.139Z,101017.84
2023-01-26T16:12:53.277Z,101022.50
2023-01-26T16:18:04.320Z,101015.38
2023-01-26T16:23:28.979Z,101019.88
2023-01-26T16:28:32.711Z,101024.50
2023-01-26T16:33:42.141Z,101029.22
2023-01-26T16:38:51.409Z,101033.66
2023-01-26T16:44:09.735Z,101031.28
2023-01-26T17:14:21.140Z,101033.59
2023-01-26T17:19:23.821Z,101033.13
2023-01-26T17:24:27.647Z,101025.97
2023-01-26T17:29:45.072Z,101044.41
2023-01-26T17:40:29.171Z,101039.66
2023-01-26T17:45:40.063Z,101046.81
2023-01-26T17:50:50.941Z,101050.47
2023-01-26T17:55:54.827Z,101052.47
2023-01-26T18:01:00.085Z,101044.06
2023-01-26T18:06:03.090Z,101041.28
2023-01-26T18:11:09.239Z,101048.59
2023-01-26T18:16:16.912Z,101051.16
2023-01-26T18:21:25.525Z,101058.88
2023-01-26T18:26:33.529Z,101062.09
2023-01-26T18:31:43.259Z,101063.81
2023-01-26T18:36:46.368Z,101046.03
2023-01-26T18:41:48.758Z,101048.91
2023-01-26T18:46:51.823Z,101048.91
2023-01-26T18:51:54.932Z,101057.88
2023-01-26T18:56:58.056Z,101065.72
2023-01-26T19:02:01.094Z,101058.19
2023-01-26T19:07:09.186Z,101062.03
2023-01-26T19:12:26.376Z,101054.22
2023-01-26T19:17:35.865Z,101059.47
2023-01-26T19:22:50.556Z,101062.06
2023-01-26T19:27:56.487Z,101058.38
2023-01-26T19:38:42.133Z,101045.25
2023-01-26T19:43:51.189Z,101039.47
2023-01-26T19:48:55.475Z,101038.00
2023-01-26T19:54:04.924Z,101036.59
2023-01-26T19:59:15.256Z,101041.31
2023-01-26T20:04:22.989Z,101047.78
2023-01-26T20:09:45.375Z,101042.66
2023-01-26T20:14:53.830Z,101040.09
2023-01-26T20:20:03.273Z,101045.53
2023-01-26T20:25:07.521Z,101042.09
2023-01-26T20:30:11.470Z,101029.72
2023-01-26T20:35:15.571Z,101043.06
2023-01-26T20:40:19.083Z,101040.44
2023-01-26T20:45:23.365Z,101038.59
2023-01-26T20:50:27.358Z,101030.59
2023-01-26T20:55:30.683Z,101027.00
2023-01-26T21:00:33.843Z,101025.16
2023-01-26T21:05:38.423Z,101025.09
2023-01-26T21:10:41.532Z,101021.47
2023-01-26T21:15:44.346Z,101033.75
2023-01-26T21:21:05.811Z,101031.84
2023-01-26T21:26:14.694Z,101029.97
2023-01-26T21:31:19.201Z,101029.84
2023-01-26T21:36:25.341Z,101032.31
2023-01-26T21:41:49.539Z,101028.63
2023-01-26T21:46:54.717Z,101038.16
2023-01-26T21:52:16.265Z,101030.13
2023-01-26T21:57:36.840Z,101037.88
2023-01-26T22:02:38.715Z,101044.78
2023-01-26T22:07:40.689Z,101044.56
2023-01-26T22:12:42.754Z,101046.16
2023-01-26T22:17:44.955Z,101044.19
2023-01-26T22:22:47.008Z,101032.59
2023-01-26T22:27:49.061Z,101035.97
2023-01-26T22:32:51.135Z,101033.13
2023-01-26T22:37:55.315Z,101037.38
2023-01-26T22:42:58.303Z,101038.94
2023-01-26T22:48:00.324Z,101030.84
2023-01-26T22:53:03.597Z,101038.59
2023-01-26T22:58:06.352Z,101030.47
2023-01-26T23:03:08.398Z,101028.56
2023-01-26T23:08:10.409Z,101031.00
2023-01-26T23:13:12.476Z,101033.47
2023-01-26T23:18:14.486Z,101022.69
2023-01-26T23:23:16.625Z,101018.97
2023-01-26T23:28:30.999Z,101018.78
2023-01-26T23:33:34.537Z,101017.75
2023-01-26T23:38:36.939Z,101017.53
2023-01-26T23:43:39.304Z,101024.44
2023-01-26T23:48:41.470Z,101033.06
2023-01-26T23:53:43.480Z,101025.00
2023-01-26T23:58:46.117Z,101022.19
